Observation data for Goodlett on 05/24/2019      Previous  Date  Next       Current Mesonet Observations  Soil Data  Daily Summary Page  Observations in Plain Language
KGDS 240500Z 13004KT 25/19 A2989 RMK A01 T02470194  RH  076%=      5-min Rain = 0
KGDS 240505Z 13005KT 25/19 A2989 RMK A01 T02470193  RH  076%=      5-min Rain = 0
KGDS 240510Z 12005KT 25/19 A2989 RMK A01 T02460194  RH  077%=      5-min Rain = 0
KGDS 240515Z 11006KT 25/19 A2989 RMK A01 T02460194  RH  077%=      5-min Rain = 0
KGDS 240520Z 11006KT 24/19 A2989 RMK A01 T02440194  RH  078%=      5-min Rain = 0
KGDS 240525Z 10005KT 24/20 A2989 RMK A01 T02410195  RH  080%=      5-min Rain = 0
KGDS 240530Z 10006KT 24/20 A2989 RMK A01 T02400195  RH  080%=      5-min Rain = 0
KGDS 240535Z 09006KT 24/20 A2988 RMK A01 T02380195  RH  081%=      5-min Rain = 0
KGDS 240540Z 09005KT 24/20 A2988 RMK A01 T02370195  RH  082%=      5-min Rain = 0
KGDS 240545Z 10006KT 24/20 A2988 RMK A01 T02360195  RH  082%=      5-min Rain = 0
KGDS 240550Z 10006KT 24/20 A2988 RMK A01 T02360195  RH  082%=      5-min Rain = 0
KGDS 240555Z 10007KT 24/19 A2988 RMK A01 T02360194  RH  082%=      5-min Rain = 0
KGDS 240600Z 11006KT 24/19 A2988 RMK A01 T02360194  RH  082%=      5-min Rain = 0
KGDS 240605Z 11007KT 24/19 A2988 RMK A01 T02360194  RH  082%=      5-min Rain = 0
KGDS 240610Z 11007KT 24/19 A2988 RMK A01 T02360194  RH  082%=      5-min Rain = 0
KGDS 240615Z 12006KT 24/19 A2989 RMK A01 T02360194  RH  082%=      5-min Rain = 0
KGDS 240620Z 12006KT 24/19 A2989 RMK A01 T02350194  RH  082%=      5-min Rain = 0
KGDS 240625Z 12005KT 23/19 A2989 RMK A01 T02340194  RH  083%=      5-min Rain = 0
KGDS 240630Z 12005KT 23/19 A2989 RMK A01 T02330194  RH  083%=      5-min Rain = 0
KGDS 240635Z 12006KT 23/19 A2989 RMK A01 T02330194  RH  083%=      5-min Rain = 0
KGDS 240640Z 12005KT 23/19 A2989 RMK A01 T02320194  RH  084%=      5-min Rain = 0
KGDS 240645Z 12005KT 23/19 A2989 RMK A01 T02320194  RH  084%=      5-min Rain = 0
KGDS 240650Z 12004KT 23/19 A299 RMK A01 T02320194  RH  084%=      5-min Rain = 0
KGDS 240655Z 12005KT 23/19 A299 RMK A01 T02320194  RH  084%=      5-min Rain = 0
KGDS 240700Z 12005KT 23/19 A299 RMK A01 T02310194  RH  084%=      5-min Rain = 0
KGDS 240705Z 12006KT 23/19 A299 RMK A01 T02310194  RH  085%=      5-min Rain = 0
KGDS 240710Z 12007KT 23/19 A299 RMK A01 T02300194  RH  085%=      5-min Rain = 0
KGDS 240715Z 12007KT 23/19 A299 RMK A01 T02290194  RH  085%=      5-min Rain = 0
KGDS 240720Z 12007KT 23/19 A299 RMK A01 T02290194  RH  086%=      5-min Rain = 0
KGDS 240725Z 11008KT 23/19 A299 RMK A01 T02270194  RH  086%=      5-min Rain = 0
KGDS 240730Z 11009KT 23/19 A299 RMK A01 T02260194  RH  087%=      5-min Rain = 0
KGDS 240740Z 11007KT 22/19 A299 RMK A01 T02240193  RH  087%=      5-min Rain = 0
KGDS 240745Z 11008KT 22/19 A2989 RMK A01 T02230193  RH  088%=      5-min Rain = 0
KGDS 240750Z 11008KT 22/19 A2989 RMK A01 T02220193  RH  089%=      5-min Rain = 0
KGDS 240755Z 11006KT 22/19 A299 RMK A01 T02210193  RH  089%=      5-min Rain = 0
KGDS 240800Z 11004KT 22/19 A299 RMK A01 T02200193  RH  090%=      5-min Rain = 0
KGDS 240805Z 11003KT 22/19 A2991 RMK A01 T02210194  RH  089%=      5-min Rain = 0
KGDS 240810Z 11002KT 22/19 A2991 RMK A01 T02220194  RH  089%=      5-min Rain = 0
KGDS 240815Z 11003KT 22/19 A2991 RMK A01 T02210194  RH  090%=      5-min Rain = 0
KGDS 240820Z 11005KT 22/20 A2991 RMK A01 T02210195  RH  090%=      5-min Rain = 0
KGDS 240825Z 12005KT 22/20 A2991 RMK A01 T02210195  RH  090%=      5-min Rain = 0
KGDS 240830Z 12005KT 22/20 A2991 RMK A01 T02230195  RH  089%=      5-min Rain = 0
KGDS 240835Z 12005KT 22/20 A2991 RMK A01 T02230196  RH  089%=      5-min Rain = 0
KGDS 240840Z 13005KT 22/20 A2991 RMK A01 T02230196  RH  089%=      5-min Rain = 0
KGDS 240845Z 12005KT 22/20 A2991 RMK A01 T02240196  RH  089%=      5-min Rain = 0
KGDS 240850Z 12005KT 22/20 A2991 RMK A01 T02240196  RH  089%=      5-min Rain = 0
KGDS 240855Z 11005KT 22/20 A299 RMK A01 T02230196  RH  090%=      5-min Rain = 0
KGDS 240900Z 11006KT 22/20 A299 RMK A01 T02210196  RH  091%=      5-min Rain = 0
KGDS 240905Z 12006KT 22/20 A299 RMK A01 T02210197  RH  092%=      5-min Rain = 0
KGDS 240910Z 13007KT 22/20 A299 RMK A01 T02210198  RH  092%=      5-min Rain = 0
KGDS 240915Z 13006KT 22/20 A299 RMK A01 T02220199  RH  092%=      5-min Rain = 0
KGDS 240920Z 12007KT 22/20 A299 RMK A01 T02220199  RH  092%=      5-min Rain = 0
KGDS 240925Z 12007KT 22/20 A299 RMK A01 T02220199  RH  092%=      5-min Rain = 0
KGDS 240930Z 12006KT 22/20 A299 RMK A01 T02230198  RH  091%=      5-min Rain = 0
KGDS 240935Z 11006KT 22/20 A299 RMK A01 T02220198  RH  091%=      5-min Rain = 0
KGDS 240940Z 11006KT 22/20 A299 RMK A01 T02230199  RH  091%=      5-min Rain = 0
KGDS 240945Z 11006KT 22/20 A299 RMK A01 T02230199  RH  091%=      5-min Rain = 0
KGDS 240950Z 11006KT 22/20 A299 RMK A01 T02240199  RH  091%=      5-min Rain = 0
KGDS 240955Z 11006KT 22/20 A2991 RMK A01 T02240199  RH  091%=      5-min Rain = 0
KGDS 241000Z 11006KT 23/20 A2991 RMK A01 T02250199  RH  091%=      5-min Rain = 0
KGDS 241005Z 11006KT 22/20 A2991 RMK A01 T02240200  RH  091%=      5-min Rain = 0
KGDS 241010Z 11005KT 22/20 A2991 RMK A01 T02240200  RH  091%=      5-min Rain = 0
KGDS 241015Z 11004KT 22/20 A2991 RMK A01 T02240200  RH  091%=      5-min Rain = 0
KGDS 241020Z 11004KT 22/20 A2991 RMK A01 T02240200  RH  092%=      5-min Rain = 0
KGDS 241025Z 09003KT 22/20 A2991 RMK A01 T02230200  RH  092%=      5-min Rain = 0
KGDS 241030Z 08003KT 22/20 A2992 RMK A01 T02230201  RH  093%=      5-min Rain = 0
KGDS 241035Z 08003KT 22/20 A2992 RMK A01 T02230201  RH  093%=      5-min Rain = 0
KGDS 241040Z 07003KT 22/20 A2992 RMK A01 T02240201  RH  092%=      5-min Rain = 0
KGDS 241045Z 09002KT 22/20 A2992 RMK A01 T02240201  RH  092%=      5-min Rain = 0
KGDS 241050Z 11002KT 22/20 A2992 RMK A01 T02240201  RH  093%=      5-min Rain = 0
KGDS 241055Z 13002KT 22/20 A2992 RMK A01 T02240202  RH  093%=      5-min Rain = 0
KGDS 241100Z 14004KT 22/20 A2992 RMK A01 T02240202  RH  093%=      5-min Rain = 0
KGDS 241105Z 14005KT 22/20 A2992 RMK A01 T02240202  RH  092%=      5-min Rain = 0
KGDS 241110Z 14006KT 22/20 A2992 RMK A01 T02240202  RH  093%=      5-min Rain = 0
KGDS 241115Z 14007KT 22/20 A2992 RMK A01 T02240202  RH  093%=      5-min Rain = 0
KGDS 241120Z 14006KT 22/20 A2992 RMK A01 T02240202  RH  093%=      5-min Rain = 0
KGDS 241125Z 14007KT 22/20 A2992 RMK A01 T02230202  RH  093%=      5-min Rain = 0
KGDS 241130Z 14008KT 22/20 A2992 RMK A01 T02230202  RH  093%=      5-min Rain = 0
KGDS 241135Z 14008KT 22/20 A2992 RMK A01 T02230201  RH  093%=      5-min Rain = 0
KGDS 241140Z 14007KT 22/20 A2992 RMK A01 T02230201  RH  093%=      5-min Rain = 0
KGDS 241145Z 14008KT 22/20 A2992 RMK A01 T02230201  RH  093%=      5-min Rain = 0
KGDS 241150Z 14009KT 22/20 A2992 RMK A01 T02230201  RH  093%=      5-min Rain = 0
KGDS 241155Z 15009KT 22/20 A2992 RMK A01 T02230201  RH  093%=      5-min Rain = 0
KGDS 241200Z 15008KT 22/20 A2992 RMK A01 T02230201  RH  093%=      5-min Rain = 0
KGDS 241205Z 15007KT 22/20 A2992 RMK A01 T02230201  RH  093%=      5-min Rain = 0
KGDS 241210Z 15008KT 22/20 A2992 RMK A01 T02230201  RH  093%=      5-min Rain = 0
KGDS 241215Z 15010KT 22/20 A2992 RMK A01 T02230201  RH  093%=      5-min Rain = 0
KGDS 241220Z 15010KT 22/20 A2992 RMK A01 T02230201  RH  093%=      5-min Rain = 0
KGDS 241225Z 15010KT 22/20 A2992 RMK A01 T02230201  RH  093%=      5-min Rain = 0
KGDS 241230Z 15010KT 22/20 A2992 RMK A01 T02230201  RH  093%=      5-min Rain = 0
KGDS 241235Z 15010KT 22/20 A2992 RMK A01 T02220201  RH  093%=      5-min Rain = 0
KGDS 241240Z 15009KT 22/20 A2993 RMK A01 T02220201  RH  093%=      5-min Rain = 0
KGDS 241245Z 15010KT 22/20 A2993 RMK A01 T02230201  RH  093%=      5-min Rain = 0
KGDS 241250Z 14010KT 22/20 A2993 RMK A01 T02240202  RH  093%=      5-min Rain = 0
KGDS 241255Z 14010KT 22/20 A2993 RMK A01 T02240202  RH  092%=      5-min Rain = 0
KGDS 241300Z 14009KT 22/20 A2993 RMK A01 T02240202  RH  092%=      5-min Rain = 0
KGDS 241305Z 15009KT 23/20 A2993 RMK A01 T02250203  RH  092%=      5-min Rain = 0
KGDS 241310Z 15009KT 23/20 A2993 RMK A01 T02260203  RH  092%=      5-min Rain = 0
KGDS 241315Z 15010KT 23/20 A2993 RMK A01 T02260203  RH  092%=      5-min Rain = 0
KGDS 241320Z 15011KT 23/20 A2993 RMK A01 T02280203  RH  091%=      5-min Rain = 0
KGDS 241325Z 15011G16KT 23/20 A2993 RMK A01 T02280203  RH  091%=      5-min Rain = 0
KGDS 241330Z 15011KT 23/20 A2993 RMK A01 T02280203  RH  091%=      5-min Rain = 0
KGDS 241335Z 15011KT 23/20 A2993 RMK A01 T02280203  RH  091%=      5-min Rain = 0
KGDS 241340Z 15009KT 23/20 A2993 RMK A01 T02290203  RH  091%=      5-min Rain = 0
KGDS 241345Z 15012KT 23/20 A2993 RMK A01 T02310204  RH  090%=      5-min Rain = 0
KGDS 241350Z 15011KT 23/20 A2993 RMK A01 T02320204  RH  089%=      5-min Rain = 0
KGDS 241355Z 15011G16KT 23/20 A2993 RMK A01 T02340204  RH  089%=      5-min Rain = 0
KGDS 241400Z 15012KT 23/20 A2993 RMK A01 T02340204  RH  088%=      5-min Rain = 0
KGDS 241405Z 16012G18KT 23/20 A2993 RMK A01 T02340204  RH  088%=      5-min Rain = 0
KGDS 241410Z 16011KT 23/20 A2993 RMK A01 T02340204  RH  088%=      5-min Rain = 0
KGDS 241415Z 16011KT 24/20 A2993 RMK A01 T02350204  RH  088%=      5-min Rain = 0
KGDS 241420Z 16013G19KT 24/20 A2993 RMK A01 T02370204  RH  087%=      5-min Rain = 0.01
KGDS 241425Z 16014G19KT 24/20 A2993 RMK A01 T02400204  RH  085%=      5-min Rain = 0
KGDS 241430Z 16014G20KT 24/20 A2993 RMK A01 T02410204  RH  084%=      5-min Rain = 0
KGDS 241435Z 16013KT 24/21 A2993 RMK A01 T02430205  RH  084%=      5-min Rain = 0
KGDS 241440Z 16015KT 24/20 A2993 RMK A01 T02440204  RH  083%=      5-min Rain = 0
KGDS 241445Z 16013KT 25/21 A2993 RMK A01 T02460205  RH  083%=      5-min Rain = 0
KGDS 241450Z 16012G17KT 25/21 A2993 RMK A01 T02520207  RH  081%=      5-min Rain = 0
KGDS 241455Z 16014KT 25/20 A2993 RMK A01 T02480204  RH  081%=      5-min Rain = 0
KGDS 241500Z 16013KT 25/20 A2993 RMK A01 T02480204  RH  081%=      5-min Rain = 0
KGDS 241505Z 16014G20KT 25/20 A2993 RMK A01 T02480204  RH  081%=      5-min Rain = 0
KGDS 241510Z 16016KT 25/20 A2993 RMK A01 T02490203  RH  080%=      5-min Rain = 0
KGDS 241515Z 16015KT 25/20 A2993 RMK A01 T02500203  RH  080%=      5-min Rain = 0
KGDS 241520Z 16015G21KT 25/20 A2993 RMK A01 T02520204  RH  079%=      5-min Rain = 0
KGDS 241525Z 16016G21KT 25/20 A2993 RMK A01 T02520202  RH  079%=      5-min Rain = 0
KGDS 241530Z 16016G22KT 25/20 A2993 RMK A01 T02530203  RH  078%=      5-min Rain = 0
KGDS 241535Z 16015G21KT 26/20 A2993 RMK A01 T02570204  RH  077%=      5-min Rain = 0
KGDS 241540Z 17015G20KT 26/20 A2993 RMK A01 T02580203  RH  076%=      5-min Rain = 0
KGDS 241545Z 17016G25KT 26/20 A2993 RMK A01 T02610204  RH  075%=      5-min Rain = 0
KGDS 241550Z 16019G26KT 26/20 A2993 RMK A01 T02610201  RH  074%=      5-min Rain = 0
KGDS 241555Z 16016KT 26/20 A2992 RMK A01 T02640204  RH  074%=      5-min Rain = 0
KGDS 241600Z 16016G22KT 27/21 A2992 RMK A01 T02660205  RH  073%=      5-min Rain = 0
KGDS 241605Z 17017G22KT 27/20 A2992 RMK A01 T02650203  RH  073%=      5-min Rain = 0
KGDS 241610Z 17017G22KT 27/20 A2992 RMK A01 T02680203  RH  072%=      5-min Rain = 0
KGDS 241615Z 17017G26KT 27/20 A2992 RMK A01 T02710204  RH  071%=      5-min Rain = 0
KGDS 241620Z 16018G24KT 27/20 A2992 RMK A01 T02700202  RH  071%=      5-min Rain = 0
KGDS 241625Z 16020G26KT 27/20 A2992 RMK A01 T02700201  RH  070%=      5-min Rain = 0
KGDS 241630Z 16018G26KT 27/20 A2992 RMK A01 T02680201  RH  071%=      5-min Rain = 0
KGDS 241635Z 17020G25KT 27/20 A2992 RMK A01 T02710201  RH  070%=      5-min Rain = 0
KGDS 241640Z 17019G25KT 27/20 A2992 RMK A01 T02730203  RH  069%=      5-min Rain = 0
KGDS 241645Z 16021G27KT 27/20 A2992 RMK A01 T02700200  RH  069%=      5-min Rain = 0
KGDS 241650Z 16019G25KT 27/20 A2992 RMK A01 T02700201  RH  070%=      5-min Rain = 0
KGDS 241655Z 16018G23KT 27/20 A2992 RMK A01 T02710202  RH  070%=      5-min Rain = 0
KGDS 241700Z 16019G25KT 27/20 A2992 RMK A01 T02700202  RH  070%=      5-min Rain = 0
KGDS 241705Z 17019G25KT 27/20 A2992 RMK A01 T02700202  RH  070%=      5-min Rain = 0
KGDS 241710Z 17020G26KT 27/20 A2992 RMK A01 T02710202  RH  070%=      5-min Rain = 0
KGDS 241715Z 17018G24KT 27/20 A2992 RMK A01 T02720203  RH  070%=      5-min Rain = 0
KGDS 241720Z 16020KT 28/20 A2992 RMK A01 T02750203  RH  069%=      5-min Rain = 0
KGDS 241725Z 17017G24KT 28/21 A2992 RMK A01 T02780205  RH  069%=      5-min Rain = 0
KGDS 241730Z 17019G24KT 28/20 A2992 RMK A01 T02770203  RH  068%=      5-min Rain = 0
KGDS 241735Z 17019G25KT 28/20 A2992 RMK A01 T02760202  RH  068%=      5-min Rain = 0
KGDS 241740Z 17021G26KT 28/20 A2992 RMK A01 T02820203  RH  066%=      5-min Rain = 0
KGDS 241745Z 17021G26KT 28/20 A2992 RMK A01 T02790201  RH  066%=      5-min Rain = 0
KGDS 241750Z 18019G24KT 28/20 A2992 RMK A01 T02770202  RH  068%=      5-min Rain = 0
KGDS 241755Z 17018G23KT 28/20 A2992 RMK A01 T02780202  RH  067%=      5-min Rain = 0
KGDS 241800Z 17017G23KT 28/20 A2992 RMK A01 T02770203  RH  068%=      5-min Rain = 0
KGDS 241805Z 17019G24KT 28/20 A2992 RMK A01 T02760201  RH  068%=      5-min Rain = 0
KGDS 241810Z 16020G25KT 27/20 A2992 RMK A01 T02720199  RH  068%=      5-min Rain = 0
KGDS 241815Z 17019KT 27/20 A2992 RMK A01 T02720201  RH  069%=      5-min Rain = 0
KGDS 241820Z 17016G22KT 27/20 A2992 RMK A01 T02730201  RH  069%=      5-min Rain = 0
KGDS 241825Z 17016G24KT 27/20 A2991 RMK A01 T02740203  RH  069%=      5-min Rain = 0
KGDS 241830Z 17016KT 27/20 A2991 RMK A01 T02720201  RH  069%=      5-min Rain = 0
KGDS 241835Z 17019G26KT 27/20 A2991 RMK A01 T02710201  RH  069%=      5-min Rain = 0
KGDS 241840Z 17015G20KT 27/20 A2991 RMK A01 T02700201  RH  070%=      5-min Rain = 0
KGDS 241845Z 17018G25KT 27/20 A2991 RMK A01 T02700202  RH  070%=      5-min Rain = 0
KGDS 241850Z 17017G22KT 27/20 A2991 RMK A01 T02720203  RH  070%=      5-min Rain = 0
KGDS 241855Z 16018G23KT 27/20 A299 RMK A01 T02710202  RH  070%=      5-min Rain = 0
KGDS 241900Z 16016G21KT 27/20 A299 RMK A01 T02710203  RH  070%=      5-min Rain = 0
KGDS 241905Z 16017G22KT 27/20 A299 RMK A01 T02720203  RH  070%=      5-min Rain = 0
KGDS 241910Z 16016G21KT 27/21 A299 RMK A01 T02700205  RH  072%=      5-min Rain = 0
KGDS 241915Z 16017KT 27/21 A299 RMK A01 T02730205  RH  071%=      5-min Rain = 0
KGDS 241920Z 16017G22KT 27/20 A299 RMK A01 T02730204  RH  070%=      5-min Rain = 0
KGDS 241925Z 16015KT 27/21 A299 RMK A01 T02700206  RH  072%=      5-min Rain = 0
KGDS 241930Z 16017KT 27/21 A299 RMK A01 T02710205  RH  071%=      5-min Rain = 0
KGDS 241935Z 16016G22KT 27/21 A299 RMK A01 T02740205  RH  070%=      5-min Rain = 0
KGDS 241940Z 16019G26KT 28/20 A299 RMK A01 T02750203  RH  069%=      5-min Rain = 0
KGDS 241945Z 17018KT 27/20 A299 RMK A01 T02730202  RH  069%=      5-min Rain = 0
KGDS 241950Z 17017G24KT 27/20 A299 RMK A01 T02730203  RH  070%=      5-min Rain = 0
KGDS 241955Z 17018G23KT 27/20 A2989 RMK A01 T02720201  RH  069%=      5-min Rain = 0
KGDS 242000Z 17016G22KT 27/20 A2989 RMK A01 T02740203  RH  069%=      5-min Rain = 0
KGDS 242005Z 16016G22KT 28/21 A2989 RMK A01 T02770205  RH  069%=      5-min Rain = 0
KGDS 242010Z 17016G21KT 28/20 A2989 RMK A01 T02790204  RH  068%=      5-min Rain = 0
KGDS 242015Z 17017KT 28/20 A2989 RMK A01 T02790203  RH  067%=      5-min Rain = 0
KGDS 242020Z 17018G23KT 28/20 A2989 RMK A01 T02820204  RH  066%=      5-min Rain = 0
KGDS 242025Z 16017G24KT 28/20 A2989 RMK A01 T02790203  RH  067%=      5-min Rain = 0
KGDS 242030Z 16016G21KT 28/20 A2989 RMK A01 T02780203  RH  068%=      5-min Rain = 0
KGDS 242035Z 16013G19KT 28/20 A2989 RMK A01 T02760204  RH  069%=      5-min Rain = 0
KGDS 242040Z 16012G18KT 28/20 A2989 RMK A01 T02760204  RH  069%=      5-min Rain = 0
KGDS 242045Z 16013G19KT 28/20 A2989 RMK A01 T02750203  RH  069%=      5-min Rain = 0
KGDS 242050Z 16012G19KT 27/20 A2989 RMK A01 T02730203  RH  070%=      5-min Rain = 0
KGDS 242055Z 15015G22KT 27/20 A2989 RMK A01 T02720202  RH  070%=      5-min Rain = 0
KGDS 242100Z 16015KT 27/20 A2989 RMK A01 T02710201  RH  070%=      5-min Rain = 0
KGDS 242105Z 16015G21KT 27/20 A2989 RMK A01 T02700201  RH  070%=      5-min Rain = 0
KGDS 242110Z 16015G21KT 27/20 A2988 RMK A01 T02690199  RH  070%=      5-min Rain = 0
KGDS 242115Z 16015KT 27/20 A2988 RMK A01 T02680199  RH  070%=      5-min Rain = 0
KGDS 242120Z 15013KT 27/20 A2988 RMK A01 T02670200  RH  071%=      5-min Rain = 0
KGDS 242125Z 16013KT 27/20 A2988 RMK A01 T02650200  RH  071%=      5-min Rain = 0
KGDS 242130Z 16011KT 26/20 A2989 RMK A01 T02640201  RH  072%=      5-min Rain = 0
KGDS 242135Z 15011KT 26/20 A2988 RMK A01 T02620201  RH  073%=      5-min Rain = 0
KGDS 242140Z 15011KT 26/20 A2987 RMK A01 T02620200  RH  073%=      5-min Rain = 0
KGDS 242145Z 15012G18KT 26/20 A2985 RMK A01 T02610200  RH  073%=      5-min Rain = 0
KGDS 242150Z 15012G17KT 26/20 A2987 RMK A01 T02600199  RH  073%=      5-min Rain = 0
KGDS 242155Z 15012KT 26/20 A2987 RMK A01 T02600199  RH  073%=      5-min Rain = 0
KGDS 242200Z 14011KT 26/20 A2986 RMK A01 T02580199  RH  074%=      5-min Rain = 0
KGDS 242205Z 14010G15KT 26/20 A2985 RMK A01 T02570199  RH  075%=      5-min Rain = 0
KGDS 242210Z 14009KT 26/20 A2985 RMK A01 T02550200  RH  076%=      5-min Rain = 0
KGDS 242215Z 14010KT 26/20 A2985 RMK A01 T02560200  RH  075%=      5-min Rain = 0
KGDS 242220Z 17011G23KT 26/20 A2986 RMK A01 T02560200  RH  076%=      5-min Rain = 0
KGDS 242225Z 26025G34KT 22/18 A2988 RMK A01 T02170176  RH  082%=      5-min Rain = 0.01
KGDS 242230Z 27027G36KT 18/17 A2986 RMK A01 T01820166  RH  095%=      5-min Rain = 0.11
KGDS 242235Z 26020G27KT 18/17 A2987 RMK A01 T01790168  RH  098%=      5-min Rain = 0.13
KGDS 242240Z 27024G32KT 18/17 A2988 RMK A01 T01840174  RH  099%=      5-min Rain = 0.16
KGDS 242245Z 29028G43KT 18/17 A2988 RMK A01 T01750165  RH  098%=      5-min Rain = 0.22
KGDS 242250Z 28024G32KT 17/16 A299 RMK A01 T01680159  RH  099%=      5-min Rain = 0.25
KGDS 242255Z 28016G27KT 16/15 A2991 RMK A01 T01630154  RH  099%=      5-min Rain = 0.18
KGDS 242300Z 27007G16KT 16/15 A2992 RMK A01 T01630154  RH  099%=      5-min Rain = 0.24
KGDS 242305Z 07005G15KT 16/15 A2989 RMK A01 T01620154  RH  099%=      5-min Rain = 0.16
KGDS 242310Z 05012G38KT 17/16 A2988 RMK A01 T01650156  RH  099%=      5-min Rain = 0.09
KGDS 242315Z 06014KT 17/16 A2987 RMK A01 T01670159  RH  100%=      5-min Rain = 0.06
KGDS 242320Z 07017G25KT 17/16 A2987 RMK A01 T01670159  RH  100%=      5-min Rain = 0.01
KGDS 242325Z 07010G33KT 17/16 A2988 RMK A01 T01670159  RH  100%=      5-min Rain = 0.02
KGDS 242330Z 12008G18KT 17/16 A2989 RMK A01 T01680160  RH  100%=      5-min Rain = 0.04
KGDS 242335Z 10011G29KT 17/16 A2988 RMK A01 T01690161  RH  100%=      5-min Rain = 0.1
KGDS 242340Z 09011KT 17/16 A2987 RMK A01 T01690161  RH  100%=      5-min Rain = 0.02
KGDS 242345Z 10018G28KT 17/16 A2988 RMK A01 T01690161  RH  100%=      5-min Rain = 0
KGDS 242350Z 09011KT 17/16 A2984 RMK A01 T01700161  RH  099%=      5-min Rain = 0.02
KGDS 242355Z 11010KT 17/16 A2985 RMK A01 T01710162  RH  099%=      5-min Rain = 0
KGDS 250000Z 14005KT 17/16 A2987 RMK A01 T01710162  RH  099%=      5-min Rain = 0
KGDS 250005Z 18004KT 17/16 A2988 RMK A01 T01720163  RH  099%=      5-min Rain = 0.01
KGDS 250010Z 17005KT 17/16 A2989 RMK A01 T01730164  RH  099%=      5-min Rain = 0
KGDS 250015Z 17007KT 17/16 A2991 RMK A01 T01730163  RH  098%=      5-min Rain = 0.02
KGDS 250020Z 18008G21KT 17/16 A2993 RMK A01 T01730162  RH  098%=      5-min Rain = 0.04
KGDS 250025Z 16009G28KT 17/16 A2993 RMK A01 T01720162  RH  098%=      5-min Rain = 0.09
KGDS 250030Z 14010KT 17/16 A2992 RMK A01 T01720162  RH  098%=      5-min Rain = 0.04
KGDS 250035Z 12014G19KT 17/16 A2988 RMK A01 T01720162  RH  098%=      5-min Rain = 0.04
KGDS 250040Z 12011KT 17/16 A2988 RMK A01 T01730163  RH  099%=      5-min Rain = 0.01
KGDS 250045Z 13011KT 18/17 A299 RMK A01 T01770166  RH  098%=      5-min Rain = 0
KGDS 250050Z 15007KT 18/17 A2991 RMK A01 T01780166  RH  097%=      5-min Rain = 0
KGDS 250055Z 20006KT 18/17 A2992 RMK A01 T01780166  RH  097%=      5-min Rain = 0.02
KGDS 250100Z 24006KT 18/17 A2992 RMK A01 T01780166  RH  098%=      5-min Rain = 0.05
KGDS 250105Z 19006KT 18/17 A2992 RMK A01 T01780165  RH  097%=      5-min Rain = 0.02
KGDS 250110Z 17006KT 18/17 A2992 RMK A01 T01790165  RH  097%=      5-min Rain = 0.02
KGDS 250115Z 15007G13KT 18/17 A2992 RMK A01 T01780166  RH  097%=      5-min Rain = 0.04
KGDS 250120Z 15004G10KT 18/17 A2993 RMK A01 T01780166  RH  097%=      5-min Rain = 0.08
KGDS 250125Z 11009KT 18/17 A2993 RMK A01 T01790167  RH  098%=      5-min Rain = 0.06
KGDS 250130Z 07006KT 18/17 A2991 RMK A01 T01780167  RH  098%=      5-min Rain = 0.01
KGDS 250135Z 11006KT 18/17 A2991 RMK A01 T01790168  RH  098%=      5-min Rain = 0
KGDS 250140Z 08004KT 18/17 A2991 RMK A01 T01790167  RH  098%=      5-min Rain = 0
KGDS 250145Z 15002KT 18/17 A2994 RMK A01 T01800168  RH  098%=      5-min Rain = 0.01
KGDS 250150Z 24003KT 18/17 A2995 RMK A01 T01810170  RH  098%=      5-min Rain = 0.11
KGDS 250155Z 27013G20KT 18/17 A2996 RMK A01 T01810168  RH  096%=      5-min Rain = 0.18
KGDS 250200Z 29013G20KT 18/16 A2994 RMK A01 T01770160  RH  095%=      5-min Rain = 0.2
KGDS 250205Z 28013G20KT 18/16 A2994 RMK A01 T01770157  RH  092%=      5-min Rain = 0.02
KGDS 250210Z 27011KT 18/16 A2994 RMK A01 T01810158  RH  090%=      5-min Rain = 0.04
KGDS 250215Z 27009KT 18/16 A2994 RMK A01 T01800160  RH  092%=      5-min Rain = 0.05
KGDS 250220Z 26013KT 18/16 A2996 RMK A01 T01790160  RH  093%=      5-min Rain = 0.05
KGDS 250225Z 24013G18KT 18/16 A2997 RMK A01 T01780158  RH  093%=      5-min Rain = 0.16
KGDS 250230Z 24011G18KT 18/16 A2995 RMK A01 T01750157  RH  093%=      5-min Rain = 0.06
KGDS 250235Z 24015G22KT 17/16 A2996 RMK A01 T01740159  RH  095%=      5-min Rain = 0.21
KGDS 250240Z 24017G30KT 17/16 A2997 RMK A01 T01710160  RH  098%=      5-min Rain = 0.18
KGDS 250245Z 24015G20KT 17/16 A2996 RMK A01 T01690157  RH  097%=      5-min Rain = 0.14
KGDS 250250Z 24012KT 17/16 A2996 RMK A01 T01720158  RH  096%=      5-min Rain = 0.09
KGDS 250255Z 27012G20KT 18/15 A2994 RMK A01 T01760154  RH  091%=      5-min Rain = 0.02
KGDS 250300Z 28010KT 18/16 A2994 RMK A01 T01790156  RH  091%=      5-min Rain = 0
KGDS 250305Z 27008KT 18/16 A2993 RMK A01 T01780158  RH  092%=      5-min Rain = 0
KGDS 250310Z 30006KT 18/16 A2992 RMK A01 T01790158  RH  092%=      5-min Rain = 0
KGDS 250315Z 33005KT 18/16 A2991 RMK A01 T01790159  RH  092%=      5-min Rain = 0
KGDS 250320Z 06003KT 18/16 A2991 RMK A01 T01790160  RH  093%=      5-min Rain = 0
KGDS 250325Z 04001KT 18/16 A2992 RMK A01 T01780160  RH  093%=      5-min Rain = 0
KGDS 250330Z 28004G9KT 18/16 A2994 RMK A01 T01800161  RH  093%=      5-min Rain = 0
KGDS 250335Z 28012G22KT 18/16 A2995 RMK A01 T01810162  RH  093%=      5-min Rain = 0
KGDS 250340Z 28018G23KT 19/16 A2995 RMK A01 T01910162  RH  087%=      5-min Rain = 0
KGDS 250345Z 29014KT 19/16 A2995 RMK A01 T01920163  RH  087%=      5-min Rain = 0
KGDS 250350Z 31013KT 19/16 A2994 RMK A01 T01890160  RH  087%=      5-min Rain = 0
KGDS 250355Z 31011KT 19/16 A2993 RMK A01 T01870160  RH  088%=      5-min Rain = 0
KGDS 250400Z 31008KT 19/16 A2993 RMK A01 T01850160  RH  090%=      5-min Rain = 0
KGDS 250405Z 32006KT 19/16 A2994 RMK A01 T01850161  RH  090%=      5-min Rain = 0
KGDS 250410Z 34004KT 18/16 A2993 RMK A01 T01830161  RH  091%=      5-min Rain = 0
KGDS 250415Z 03004KT 18/16 A2993 RMK A01 T01810162  RH  093%=      5-min Rain = 0
KGDS 250420Z 04004KT 18/16 A2993 RMK A01 T01810163  RH  094%=      5-min Rain = 0
KGDS 250425Z 06002KT 18/16 A2993 RMK A01 T01800163  RH  094%=      5-min Rain = 0
KGDS 250430Z 31001KT 18/16 A2994 RMK A01 T01800163  RH  094%=      5-min Rain = 0
KGDS 250435Z 00000KT 18/16 A2994 RMK A01 T01800163  RH  094%=      5-min Rain = 0
KGDS 250440Z 13002KT 18/16 A2994 RMK A01 T01800163  RH  095%=      5-min Rain = 0
KGDS 250445Z 13005KT 18/16 A2993 RMK A01 T01780163  RH  096%=      5-min Rain = 0
KGDS 250450Z 13005KT 18/16 A2994 RMK A01 T01780163  RH  096%=      5-min Rain = 0
KGDS 250455Z 13004KT 18/16 A2994 RMK A01 T01770163  RH  096%=      5-min Rain = 0

Page generated in 0.0093 seconds.